sensor_id;sensor_type;location;lat;lon;timestamp;pressure;altitude;pressure_sealevel;temperature;humidity
11987;BME280;6053;51.382;6.768;2023-09-19T00:02:11;100630.25;;;19.39;62.34
11987;BME280;6053;51.382;6.768;2023-09-19T00:04:39;100644.31;;;18.59;62.51
11987;BME280;6053;51.382;6.768;2023-09-19T00:07:16;100644.94;;;18.69;64.85
11987;BME280;6053;51.382;6.768;2023-09-19T00:09:44;100638.25;;;20.07;60.71
11987;BME280;6053;51.382;6.768;2023-09-19T00:12:14;100646.81;;;19.42;60.46
11987;BME280;6053;51.382;6.768;2023-09-19T00:14:43;100648.03;;;18.71;66.24
11987;BME280;6053;51.382;6.768;2023-09-19T00:17:11;100652.63;;;18.54;63.32
11987;BME280;6053;51.382;6.768;2023-09-19T00:19:39;100647.88;;;18.06;64.64
11987;BME280;6053;51.382;6.768;2023-09-19T00:22:13;100649.13;;;19.18;61.44
11987;BME280;6053;51.382;6.768;2023-09-19T00:24:58;100650.81;;;18.91;64.38
11987;BME280;6053;51.382;6.768;2023-09-19T00:27:36;100649.19;;;19.24;60.46
11987;BME280;6053;51.382;6.768;2023-09-19T00:30:13;100656.69;;;19.13;63.72
11987;BME280;6053;51.382;6.768;2023-09-19T00:32:50;100650.59;;;19.65;58.78
11987;BME280;6053;51.382;6.768;2023-09-19T00:35:25;100650.41;;;19.74;61.97
11987;BME280;6053;51.382;6.768;2023-09-19T00:37:58;100647.69;;;20.10;60.43
11987;BME280;6053;51.382;6.768;2023-09-19T00:40:29;100657.56;;;19.75;58.77
11987;BME280;6053;51.382;6.768;2023-09-19T00:43:01;100660.09;;;17.94;63.63
11987;BME280;6053;51.382;6.768;2023-09-19T00:45:39;100657.03;;;18.41;64.40
11987;BME280;6053;51.382;6.768;2023-09-19T00:48:10;100659.63;;;18.44;62.64
11987;BME280;6053;51.382;6.768;2023-09-19T00:50:43;100666.41;;;18.97;61.95
11987;BME280;6053;51.382;6.768;2023-09-19T00:53:15;100665.47;;;18.46;63.88
11987;BME280;6053;51.382;6.768;2023-09-19T00:56:00;100668.53;;;19.22;62.36
11987;BME280;6053;51.382;6.768;2023-09-19T00:58:34;100677.69;;;19.03;63.89
11987;BME280;6053;51.382;6.768;2023-09-19T01:01:02;100675.94;;;17.68;64.57
11987;BME280;6053;51.382;6.768;2023-09-19T01:03:34;100675.50;;;18.52;64.53
11987;BME280;6053;51.382;6.768;2023-09-19T01:06:03;100676.22;;;19.27;63.59
11987;BME280;6053;51.382;6.768;2023-09-19T01:08:31;100680.53;;;19.28;60.55
11987;BME280;6053;51.382;6.768;2023-09-19T01:11:06;100684.72;;;18.58;65.14
11987;BME280;6053;51.382;6.768;2023-09-19T01:13:50;100692.72;;;19.05;62.49
11987;BME280;6053;51.382;6.768;2023-09-19T01:16:32;100692.09;;;18.76;62.40
11987;BME280;6053;51.382;6.768;2023-09-19T01:22:35;100697.75;;;19.01;58.64
11987;BME280;6053;51.382;6.768;2023-09-19T01:28:30;100710.47;;;18.28;63.00
11987;BME280;6053;51.382;6.768;2023-09-19T01:31:09;100701.59;;;18.30;61.60
11987;BME280;6053;51.382;6.768;2023-09-19T01:33:57;100711.59;;;17.59;64.59
11987;BME280;6053;51.382;6.768;2023-09-19T01:36:28;100722.00;;;18.50;63.98
11987;BME280;6053;51.382;6.768;2023-09-19T01:39:08;100714.53;;;18.81;63.10
11987;BME280;6053;51.382;6.768;2023-09-19T01:42:01;100714.69;;;19.32;60.07
11987;BME280;6053;51.382;6.768;2023-09-19T01:44:57;100716.91;;;20.71;55.76
11987;BME280;6053;51.382;6.768;2023-09-19T01:47:33;100725.34;;;17.91;61.30
11987;BME280;6053;51.382;6.768;2023-09-19T01:50:13;100727.94;;;18.57;62.44
11987;BME280;6053;51.382;6.768;2023-09-19T01:53:02;100719.19;;;17.87;64.03
11987;BME280;6053;51.382;6.768;2023-09-19T01:55:40;100729.13;;;18.51;63.55
11987;BME280;6053;51.382;6.768;2023-09-19T01:58:26;100724.88;;;17.92;61.90
11987;BME280;6053;51.382;6.768;2023-09-19T02:01:03;100723.03;;;17.89;63.93
11987;BME280;6053;51.382;6.768;2023-09-19T02:03:57;100725.59;;;18.70;60.39
11987;BME280;6053;51.382;6.768;2023-09-19T02:06:26;100722.72;;;19.05;60.42
11987;BME280;6053;51.382;6.768;2023-09-19T02:08:55;100734.69;;;17.88;61.74
11987;BME280;6053;51.382;6.768;2023-09-19T02:11:24;100736.63;;;17.82;62.32
11987;BME280;6053;51.382;6.768;2023-09-19T02:13:59;100729.38;;;18.19;61.94
11987;BME280;6053;51.382;6.768;2023-09-19T02:16:27;100726.56;;;17.47;63.08
11987;BME280;6053;51.382;6.768;2023-09-19T02:18:57;100741.03;;;18.03;63.13
11987;BME280;6053;51.382;6.768;2023-09-19T02:21:32;100741.28;;;18.48;59.99
11987;BME280;6053;51.382;6.768;2023-09-19T02:24:07;100745.16;;;17.26;64.42
11987;BME280;6053;51.382;6.768;2023-09-19T02:26:46;100753.63;;;16.71;65.45
11987;BME280;6053;51.382;6.768;2023-09-19T02:29:22;100748.13;;;18.47;61.30
11987;BME280;6053;51.382;6.768;2023-09-19T02:31:52;100739.88;;;17.66;62.21
11987;BME280;6053;51.382;6.768;2023-09-19T02:34:25;100755.16;;;18.42;60.33
11987;BME280;6053;51.382;6.768;2023-09-19T02:36:54;100752.44;;;17.09;65.06
11987;BME280;6053;51.382;6.768;2023-09-19T02:39:29;100751.94;;;18.30;63.03
11987;BME280;6053;51.382;6.768;2023-09-19T02:42:04;100751.28;;;18.06;64.18
11987;BME280;6053;51.382;6.768;2023-09-19T02:44:32;100760.56;;;18.46;63.71
11987;BME280;6053;51.382;6.768;2023-09-19T02:47:05;100751.63;;;18.76;60.29
11987;BME280;6053;51.382;6.768;2023-09-19T02:49:44;100760.19;;;17.66;63.84
11987;BME280;6053;51.382;6.768;2023-09-19T02:52:13;100758.56;;;18.18;63.37
11987;BME280;6053;51.382;6.768;2023-09-19T02:54:43;100763.19;;;17.63;62.45
11987;BME280;6053;51.382;6.768;2023-09-19T02:57:15;100771.19;;;17.99;62.08
11987;BME280;6053;51.382;6.768;2023-09-19T02:59:45;100771.69;;;17.83;61.36
11987;BME280;6053;51.382;6.768;2023-09-19T03:02:17;100773.31;;;18.18;62.17
11987;BME280;6053;51.382;6.768;2023-09-19T03:04:50;100778.06;;;17.98;62.39
11987;BME280;6053;51.382;6.768;2023-09-19T03:07:22;100786.00;;;17.47;62.11
11987;BME280;6053;51.382;6.768;2023-09-19T03:09:57;100783.63;;;17.69;61.08
11987;BME280;6053;51.382;6.768;2023-09-19T03:12:27;100781.28;;;18.88;59.05
11987;BME280;6053;51.382;6.768;2023-09-19T03:14:58;100781.56;;;18.56;59.46
11987;BME280;6053;51.382;6.768;2023-09-19T03:17:27;100783.00;;;18.66;61.48
11987;BME280;6053;51.382;6.768;2023-09-19T03:20:00;100784.16;;;18.74;57.95
11987;BME280;6053;51.382;6.768;2023-09-19T03:22:29;100780.84;;;18.12;62.15
11987;BME280;6053;51.382;6.768;2023-09-19T03:24:58;100776.75;;;17.70;60.35
11987;BME280;6053;51.382;6.768;2023-09-19T03:27:28;100777.84;;;17.72;61.30
11987;BME280;6053;51.382;6.768;2023-09-19T03:29:59;100784.13;;;18.25;61.41
11987;BME280;6053;51.382;6.768;2023-09-19T03:32:28;100781.94;;;16.78;61.12
11987;BME280;6053;51.382;6.768;2023-09-19T03:34:59;100783.66;;;18.27;59.27
11987;BME280;6053;51.382;6.768;2023-09-19T03:37:29;100784.88;;;18.11;57.27
11987;BME280;6053;51.382;6.768;2023-09-19T03:39:58;100783.13;;;18.14;57.72
11987;BME280;6053;51.382;6.768;2023-09-19T03:42:26;100782.59;;;17.43;62.41
11987;BME280;6053;51.382;6.768;2023-09-19T03:44:55;100783.25;;;17.76;59.00
11987;BME280;6053;51.382;6.768;2023-09-19T03:47:24;100784.38;;;18.56;60.83
11987;BME280;6053;51.382;6.768;2023-09-19T03:49:54;100787.22;;;18.76;57.61
11987;BME280;6053;51.382;6.768;2023-09-19T03:52:23;100785.81;;;18.66;59.60
11987;BME280;6053;51.382;6.768;2023-09-19T03:55:00;100791.63;;;17.76;59.03
11987;BME280;6053;51.382;6.768;2023-09-19T03:57:36;100794.72;;;18.50;61.29
11987;BME280;6053;51.382;6.768;2023-09-19T04:00:05;100787.28;;;18.47;60.69
11987;BME280;6053;51.382;6.768;2023-09-19T04:02:51;100788.91;;;18.53;57.45
11987;BME280;6053;51.382;6.768;2023-09-19T04:05:22;100785.00;;;17.50;59.54
11987;BME280;6053;51.382;6.768;2023-09-19T04:07:57;100786.56;;;19.01;59.90
11987;BME280;6053;51.382;6.768;2023-09-19T04:10:30;100783.84;;;17.94;63.04
11987;BME280;6053;51.382;6.768;2023-09-19T04:12:58;100777.88;;;17.49;59.97
11987;BME280;6053;51.382;6.768;2023-09-19T04:15:27;100785.03;;;17.27;65.01
11987;BME280;6053;51.382;6.768;2023-09-19T04:17:55;100790.31;;;18.29;60.17
11987;BME280;6053;51.382;6.768;2023-09-19T04:20:32;100780.47;;;17.38;61.51
11987;BME280;6053;51.382;6.768;2023-09-19T04:23:01;100786.78;;;17.62;61.29
11987;BME280;6053;51.382;6.768;2023-09-19T04:25:36;100784.38;;;17.32;64.55
11987;BME280;6053;51.382;6.768;2023-09-19T04:28:05;100790.88;;;18.47;61.44
11987;BME280;6053;51.382;6.768;2023-09-19T04:30:45;100792.28;;;17.71;63.44
11987;BME280;6053;51.382;6.768;2023-09-19T04:33:14;100787.88;;;18.51;61.36
11987;BME280;6053;51.382;6.768;2023-09-19T04:35:42;100782.00;;;19.03;59.92
11987;BME280;6053;51.382;6.768;2023-09-19T04:38:14;100775.06;;;16.88;62.29
11987;BME280;6053;51.382;6.768;2023-09-19T04:40:50;100776.22;;;17.80;62.55
11987;BME280;6053;51.382;6.768;2023-09-19T04:43:24;100782.16;;;17.59;60.83
11987;BME280;6053;51.382;6.768;2023-09-19T04:45:57;100784.31;;;16.94;63.43
11987;BME280;6053;51.382;6.768;2023-09-19T04:48:27;100790.56;;;18.02;60.60
11987;BME280;6053;51.382;6.768;2023-09-19T04:50:57;100787.06;;;17.03;62.36
11987;BME280;6053;51.382;6.768;2023-09-19T04:53:27;100786.91;;;16.42;64.50
11987;BME280;6053;51.382;6.768;2023-09-19T04:55:59;100792.06;;;17.60;64.75
11987;BME280;6053;51.382;6.768;2023-09-19T04:58:28;100796.97;;;17.51;62.53
11987;BME280;6053;51.382;6.768;2023-09-19T05:00:57;100807.31;;;17.73;62.43
11987;BME280;6053;51.382;6.768;2023-09-19T05:03:26;100804.31;;;16.92;64.24
11987;BME280;6053;51.382;6.768;2023-09-19T05:05:55;100801.56;;;16.60;64.05
11987;BME280;6053;51.382;6.768;2023-09-19T05:08:23;100820.81;;;17.37;63.40
11987;BME280;6053;51.382;6.768;2023-09-19T05:10:57;100824.06;;;17.73;59.11
11987;BME280;6053;51.382;6.768;2023-09-19T05:13:26;100835.13;;;16.75;64.41
11987;BME280;6053;51.382;6.768;2023-09-19T05:15:59;100834.34;;;16.97;64.25
11987;BME280;6053;51.382;6.768;2023-09-19T05:18:28;100842.81;;;16.80;66.35
11987;BME280;6053;51.382;6.768;2023-09-19T05:21:09;100850.47;;;17.49;62.57
11987;BME280;6053;51.382;6.768;2023-09-19T05:23:39;100847.03;;;16.75;63.10
11987;BME280;6053;51.382;6.768;2023-09-19T05:26:12;100861.19;;;17.27;62.95
11987;BME280;6053;51.382;6.768;2023-09-19T05:28:49;100872.47;;;17.56;60.38
11987;BME280;6053;51.382;6.768;2023-09-19T05:31:20;100860.81;;;18.10;60.02
11987;BME280;6053;51.382;6.768;2023-09-19T05:33:56;100873.00;;;18.50;59.65
11987;BME280;6053;51.382;6.768;2023-09-19T05:36:28;100876.53;;;18.94;57.00
11987;BME280;6053;51.382;6.768;2023-09-19T05:39:05;100884.00;;;18.53;59.23
11987;BME280;6053;51.382;6.768;2023-09-19T05:41:38;100866.38;;;18.47;58.53
11987;BME280;6053;51.382;6.768;2023-09-19T05:44:13;100883.13;;;18.33;58.05
11987;BME280;6053;51.382;6.768;2023-09-19T05:46:57;100881.72;;;18.00;59.85
11987;BME280;6053;51.382;6.768;2023-09-19T05:49:26;100883.13;;;17.81;58.42
11987;BME280;6053;51.382;6.768;2023-09-19T05:51:54;100870.59;;;17.76;61.50
11987;BME280;6053;51.382;6.768;2023-09-19T05:54:23;100889.06;;;18.84;57.83
11987;BME280;6053;51.382;6.768;2023-09-19T05:56:56;100892.44;;;18.16;58.53
11987;BME280;6053;51.382;6.768;2023-09-19T05:59:25;100895.19;;;18.53;58.71
11987;BME280;6053;51.382;6.768;2023-09-19T06:01:53;100889.22;;;18.60;56.04
11987;BME280;6053;51.382;6.768;2023-09-19T06:04:22;100891.88;;;17.27;60.26
11987;BME280;6053;51.382;6.768;2023-09-19T06:06:52;100895.16;;;18.97;57.32
11987;BME280;6053;51.382;6.768;2023-09-19T06:09:21;100895.31;;;18.07;58.54
11987;BME280;6053;51.382;6.768;2023-09-19T06:11:57;100897.03;;;18.28;57.34
11987;BME280;6053;51.382;6.768;2023-09-19T06:14:33;100889.00;;;18.21;59.96
11987;BME280;6053;51.382;6.768;2023-09-19T06:17:02;100882.63;;;18.06;58.29
11987;BME280;6053;51.382;6.768;2023-09-19T06:19:31;100878.28;;;17.67;60.23
11987;BME280;6053;51.382;6.768;2023-09-19T06:22:00;100874.34;;;18.83;58.72
11987;BME280;6053;51.382;6.768;2023-09-19T06:24:31;100872.81;;;17.49;59.85
11987;BME280;6053;51.382;6.768;2023-09-19T06:27:01;100889.53;;;19.11;57.89
11987;BME280;6053;51.382;6.768;2023-09-19T06:29:34;100880.03;;;18.74;58.77
11987;BME280;6053;51.382;6.768;2023-09-19T06:32:10;100875.88;;;17.74;57.85
11987;BME280;6053;51.382;6.768;2023-09-19T06:34:39;100881.59;;;18.61;59.87
11987;BME280;6053;51.382;6.768;2023-09-19T06:37:14;100879.81;;;18.92;56.60
11987;BME280;6053;51.382;6.768;2023-09-19T06:39:45;100885.16;;;18.61;58.42
11987;BME280;6053;51.382;6.768;2023-09-19T06:42:18;100885.31;;;19.55;54.90
11987;BME280;6053;51.382;6.768;2023-09-19T06:44:51;100885.94;;;19.45;55.08
11987;BME280;6053;51.382;6.768;2023-09-19T06:47:20;100880.56;;;19.07;57.04
11987;BME280;6053;51.382;6.768;2023-09-19T06:50:06;100885.16;;;18.61;58.87
11987;BME280;6053;51.382;6.768;2023-09-19T06:52:42;100899.91;;;18.76;59.12
11987;BME280;6053;51.382;6.768;2023-09-19T06:55:18;100893.91;;;17.50;60.85
11987;BME280;6053;51.382;6.768;2023-09-19T06:57:51;100898.63;;;18.20;59.14
11987;BME280;6053;51.382;6.768;2023-09-19T07:00:28;100899.09;;;18.18;60.64
11987;BME280;6053;51.382;6.768;2023-09-19T07:03:03;100901.22;;;18.09;58.68
11987;BME280;6053;51.382;6.768;2023-09-19T07:05:36;100902.81;;;17.63;63.09
11987;BME280;6053;51.382;6.768;2023-09-19T07:08:07;100897.78;;;18.71;59.55
11987;BME280;6053;51.382;6.768;2023-09-19T07:10:37;100898.94;;;18.50;59.46
11987;BME280;6053;51.382;6.768;2023-09-19T07:13:15;100906.00;;;18.60;57.85
11987;BME280;6053;51.382;6.768;2023-09-19T07:15:45;100904.69;;;19.19;57.89
11987;BME280;6053;51.382;6.768;2023-09-19T07:18:16;100908.66;;;20.32;53.99
11987;BME280;6053;51.382;6.768;2023-09-19T07:20:48;100915.06;;;19.53;57.10
11987;BME280;6053;51.382;6.768;2023-09-19T07:23:20;100915.31;;;18.86;57.39
11987;BME280;6053;51.382;6.768;2023-09-19T07:25:50;100926.31;;;19.73;56.58
11987;BME280;6053;51.382;6.768;2023-09-19T07:28:26;100921.25;;;19.57;55.40
11987;BME280;6053;51.382;6.768;2023-09-19T07:30:55;100924.31;;;18.61;59.45
11987;BME280;6053;51.382;6.768;2023-09-19T07:33:27;100920.94;;;19.35;57.27
11987;BME280;6053;51.382;6.768;2023-09-19T07:35:59;100922.06;;;19.97;54.96
11987;BME280;6053;51.382;6.768;2023-09-19T07:38:31;100925.03;;;19.94;54.06
11987;BME280;6053;51.382;6.768;2023-09-19T07:41:08;100928.00;;;19.30;56.18
11987;BME280;6053;51.382;6.768;2023-09-19T07:43:41;100925.97;;;19.31;57.08
11987;BME280;6053;51.382;6.768;2023-09-19T07:46:17;100933.16;;;19.72;56.97
11987;BME280;6053;51.382;6.768;2023-09-19T07:48:49;100923.50;;;18.90;58.58
11987;BME280;6053;51.382;6.768;2023-09-19T07:51:17;100930.22;;;18.11;59.12
11987;BME280;6053;51.382;6.768;2023-09-19T07:53:49;100921.31;;;17.84;61.98
11987;BME280;6053;51.382;6.768;2023-09-19T07:56:20;100922.22;;;19.94;55.17
11987;BME280;6053;51.382;6.768;2023-09-19T07:58:51;100927.19;;;18.81;57.26
11987;BME280;6053;51.382;6.768;2023-09-19T08:01:23;100933.06;;;18.98;57.82
11987;BME280;6053;51.382;6.768;2023-09-19T08:03:52;100946.84;;;20.49;53.55
11987;BME280;6053;51.382;6.768;2023-09-19T08:06:23;100933.53;;;20.19;53.26
11987;BME280;6053;51.382;6.768;2023-09-19T08:08:56;100947.38;;;19.88;54.36
11987;BME280;6053;51.382;6.768;2023-09-19T08:11:28;100937.88;;;20.45;52.92
11987;BME280;6053;51.382;6.768;2023-09-19T08:14:02;100944.16;;;21.22;51.41
11987;BME280;6053;51.382;6.768;2023-09-19T08:16:33;100935.88;;;19.86;53.52
11987;BME280;6053;51.382;6.768;2023-09-19T08:19:02;100940.78;;;19.03;56.83
11987;BME280;6053;51.382;6.768;2023-09-19T08:21:36;100947.84;;;19.67;55.34
11987;BME280;6053;51.382;6.768;2023-09-19T08:24:05;100956.25;;;19.47;54.80
11987;BME280;6053;51.382;6.768;2023-09-19T08:26:42;100944.63;;;20.33;54.16
11987;BME280;6053;51.382;6.768;2023-09-19T08:29:13;100948.16;;;20.79;52.73
11987;BME280;6053;51.382;6.768;2023-09-19T08:31:55;100952.19;;;19.88;53.77
11987;BME280;6053;51.382;6.768;2023-09-19T08:34:24;100963.72;;;19.90;54.55
11987;BME280;6053;51.382;6.768;2023-09-19T08:36:53;100957.41;;;20.85;52.72
11987;BME280;6053;51.382;6.768;2023-09-19T08:39:26;100963.34;;;20.42;53.22
11987;BME280;6053;51.382;6.768;2023-09-19T08:41:59;100953.66;;;20.43;51.40
11987;BME280;6053;51.382;6.768;2023-09-19T08:44:29;100967.72;;;19.29;56.72
11987;BME280;6053;51.382;6.768;2023-09-19T08:47:04;100957.06;;;20.07;53.82
11987;BME280;6053;51.382;6.768;2023-09-19T08:49:45;100958.91;;;20.10;54.30
11987;BME280;6053;51.382;6.768;2023-09-19T08:52:25;100969.44;;;19.81;54.36
11987;BME280;6053;51.382;6.768;2023-09-19T08:55:01;100963.28;;;20.36;53.77
11987;BME280;6053;51.382;6.768;2023-09-19T08:57:41;100961.81;;;20.66;52.49
11987;BME280;6053;51.382;6.768;2023-09-19T09:00:18;100956.28;;;19.87;53.88
11987;BME280;6053;51.382;6.768;2023-09-19T09:02:48;100953.16;;;20.70;52.42
11987;BME280;6053;51.382;6.768;2023-09-19T09:05:18;100958.56;;;20.48;52.45
11987;BME280;6053;51.382;6.768;2023-09-19T09:07:50;100964.13;;;19.63;55.16
11987;BME280;6053;51.382;6.768;2023-09-19T09:10:23;100952.28;;;20.33;53.56
11987;BME280;6053;51.382;6.768;2023-09-19T09:12:52;100962.69;;;20.07;53.21
11987;BME280;6053;51.382;6.768;2023-09-19T09:15:26;100955.09;;;19.93;53.47
11987;BME280;6053;51.382;6.768;2023-09-19T09:17:58;100950.44;;;21.06;50.79
11987;BME280;6053;51.382;6.768;2023-09-19T09:20:29;100951.78;;;20.34;53.18
11987;BME280;6053;51.382;6.768;2023-09-19T09:23:01;100943.97;;;20.69;51.84
11987;BME280;6053;51.382;6.768;2023-09-19T09:25:47;100943.44;;;20.40;51.40
11987;BME280;6053;51.382;6.768;2023-09-19T09:28:21;100941.16;;;19.24;55.34
11987;BME280;6053;51.382;6.768;2023-09-19T09:30:51;100948.88;;;20.74;52.04
11987;BME280;6053;51.382;6.768;2023-09-19T09:33:21;100941.69;;;19.97;53.63
11987;BME280;6053;51.382;6.768;2023-09-19T09:35:52;100943.66;;;19.57;54.56
11987;BME280;6053;51.382;6.768;2023-09-19T09:38:22;100950.53;;;19.56;55.15
11987;BME280;6053;51.382;6.768;2023-09-19T09:40:56;100947.53;;;19.25;54.67
11987;BME280;6053;51.382;6.768;2023-09-19T09:43:38;100951.13;;;18.82;57.86
11987;BME280;6053;51.382;6.768;2023-09-19T09:46:19;100952.38;;;19.10;56.58
11987;BME280;6053;51.382;6.768;2023-09-19T09:49:10;100946.06;;;19.64;56.02
11987;BME280;6053;51.382;6.768;2023-09-19T09:52:00;100951.63;;;18.81;56.81
11987;BME280;6053;51.382;6.768;2023-09-19T09:54:36;100947.94;;;18.89;58.48
11987;BME280;6053;51.382;6.768;2023-09-19T09:57:06;100940.53;;;20.09;53.62
11987;BME280;6053;51.382;6.768;2023-09-19T09:59:47;100957.03;;;19.13;54.76
11987;BME280;6053;51.382;6.768;2023-09-19T10:02:19;100949.00;;;19.40;54.96
11987;BME280;6053;51.382;6.768;2023-09-19T10:04:53;100946.78;;;21.31;51.03
11987;BME280;6053;51.382;6.768;2023-09-19T10:07:46;100950.88;;;19.63;52.84
11987;BME280;6053;51.382;6.768;2023-09-19T10:10:34;100955.19;;;20.44;51.62
11987;BME280;6053;51.382;6.768;2023-09-19T10:13:21;100947.78;;;20.41;51.88
11987;BME280;6053;51.382;6.768;2023-09-19T10:15:51;100937.69;;;21.10;50.44
11987;BME280;6053;51.382;6.768;2023-09-19T10:18:25;100925.94;;;20.50;49.77
11987;BME280;6053;51.382;6.768;2023-09-19T10:20:56;100923.94;;;20.81;50.29
11987;BME280;6053;51.382;6.768;2023-09-19T10:23:28;100929.13;;;20.63;49.61
11987;BME280;6053;51.382;6.768;2023-09-19T10:26:02;100926.41;;;20.74;49.39
11987;BME280;6053;51.382;6.768;2023-09-19T10:28:32;100923.56;;;21.77;47.28
11987;BME280;6053;51.382;6.768;2023-09-19T10:31:03;100919.59;;;20.80;49.33
11987;BME280;6053;51.382;6.768;2023-09-19T10:33:43;100914.47;;;21.10;49.05
11987;BME280;6053;51.382;6.768;2023-09-19T10:36:14;100913.44;;;22.02;47.04
11987;BME280;6053;51.382;6.768;2023-09-19T10:38:44;100901.03;;;21.66;47.28
11987;BME280;6053;51.382;6.768;2023-09-19T10:41:15;100916.09;;;21.63;46.29
11987;BME280;6053;51.382;6.768;2023-09-19T10:43:46;100915.19;;;21.41;49.22
11987;BME280;6053;51.382;6.768;2023-09-19T10:46:21;100908.00;;;20.42;48.32
11987;BME280;6053;51.382;6.768;2023-09-19T10:48:52;100920.44;;;21.23;48.51
11987;BME280;6053;51.382;6.768;2023-09-19T10:51:24;100900.06;;;21.33;49.48
11987;BME280;6053;51.382;6.768;2023-09-19T10:53:59;100912.66;;;21.07;48.55
11987;BME280;6053;51.382;6.768;2023-09-19T10:56:46;100907.28;;;21.03;48.49
11987;BME280;6053;51.382;6.768;2023-09-19T10:59:18;100908.78;;;21.88;48.98
11987;BME280;6053;51.382;6.768;2023-09-19T11:01:50;100905.34;;;20.84;49.04
11987;BME280;6053;51.382;6.768;2023-09-19T11:04:28;100915.19;;;21.41;49.94
11987;BME280;6053;51.382;6.768;2023-09-19T11:07:13;100912.56;;;20.65;48.57
11987;BME280;6053;51.382;6.768;2023-09-19T11:09:47;100919.00;;;21.02;49.73
11987;BME280;6053;51.382;6.768;2023-09-19T11:12:50;100907.03;;;21.43;48.40
11987;BME280;6053;51.382;6.768;2023-09-19T11:18:54;100924.50;;;21.22;49.66
11987;BME280;6053;51.382;6.768;2023-09-19T11:21:57;100913.06;;;20.94;47.41
11987;BME280;6053;51.382;6.768;2023-09-19T11:24:35;100924.75;;;21.55;46.81
11987;BME280;6053;51.382;6.768;2023-09-19T11:27:13;100918.13;;;20.34;48.63
11987;BME280;6053;51.382;6.768;2023-09-19T11:29:47;100932.34;;;21.12;49.43
11987;BME280;6053;51.382;6.768;2023-09-19T11:32:16;100921.38;;;20.78;50.00
11987;BME280;6053;51.382;6.768;2023-09-19T11:34:47;100917.94;;;21.36;47.62
11987;BME280;6053;51.382;6.768;2023-09-19T11:40:56;100912.66;;;21.07;47.68
11987;BME280;6053;51.382;6.768;2023-09-19T11:43:52;100910.84;;;21.93;47.55
11987;BME280;6053;51.382;6.768;2023-09-19T11:46:24;100908.31;;;21.48;45.53
11987;BME280;6053;51.382;6.768;2023-09-19T11:48:53;100912.06;;;21.75;45.46
11987;BME280;6053;51.382;6.768;2023-09-19T11:51:26;100906.53;;;22.03;44.55
11987;BME280;6053;51.382;6.768;2023-09-19T11:53:57;100909.09;;;20.76;45.11
11987;BME280;6053;51.382;6.768;2023-09-19T11:56:28;100895.06;;;20.76;45.87
11987;BME280;6053;51.382;6.768;2023-09-19T11:58:58;100895.69;;;20.90;47.03
11987;BME280;6053;51.382;6.768;2023-09-19T12:01:31;100906.41;;;20.92;44.78
11987;BME280;6053;51.382;6.768;2023-09-19T12:04:02;100885.66;;;21.15;44.29
11987;BME280;6053;51.382;6.768;2023-09-19T12:06:32;100879.06;;;21.23;42.91
11987;BME280;6053;51.382;6.768;2023-09-19T12:09:06;100890.69;;;22.11;46.48
11987;BME280;6053;51.382;6.768;2023-09-19T12:11:48;100875.06;;;21.41;45.25
11987;BME280;6053;51.382;6.768;2023-09-19T12:14:25;100877.66;;;21.50;45.74
11987;BME280;6053;51.382;6.768;2023-09-19T12:17:00;100883.75;;;21.43;47.85
11987;BME280;6053;51.382;6.768;2023-09-19T12:19:30;100870.72;;;21.87;45.73
11987;BME280;6053;51.382;6.768;2023-09-19T12:22:00;100880.97;;;21.01;43.89
11987;BME280;6053;51.382;6.768;2023-09-19T12:24:32;100881.50;;;21.47;44.37
11987;BME280;6053;51.382;6.768;2023-09-19T12:27:06;100867.72;;;22.12;46.18
11987;BME280;6053;51.382;6.768;2023-09-19T12:29:48;100862.00;;;21.32;45.22
11987;BME280;6053;51.382;6.768;2023-09-19T12:32:41;100855.91;;;22.08;45.43
11987;BME280;6053;51.382;6.768;2023-09-19T12:35:26;100860.25;;;21.93;44.24
11987;BME280;6053;51.382;6.768;2023-09-19T12:37:55;100854.53;;;21.65;44.32
11987;BME280;6053;51.382;6.768;2023-09-19T12:40:24;100843.16;;;21.44;44.94
11987;BME280;6053;51.382;6.768;2023-09-19T12:43:01;100845.34;;;21.18;44.34
11987;BME280;6053;51.382;6.768;2023-09-19T12:45:34;100842.53;;;21.76;45.30
11987;BME280;6053;51.382;6.768;2023-09-19T12:48:28;100849.59;;;22.40;43.10
11987;BME280;6053;51.382;6.768;2023-09-19T12:51:03;100844.72;;;22.19;45.44
11987;BME280;6053;51.382;6.768;2023-09-19T12:53:35;100844.66;;;21.97;46.61
11987;BME280;6053;51.382;6.768;2023-09-19T12:56:09;100839.00;;;21.86;44.03
11987;BME280;6053;51.382;6.768;2023-09-19T12:59:05;100840.53;;;21.87;43.33
11987;BME280;6053;51.382;6.768;2023-09-19T13:01:40;100847.25;;;22.28;43.70
11987;BME280;6053;51.382;6.768;2023-09-19T13:04:17;100843.09;;;20.91;44.23
11987;BME280;6053;51.382;6.768;2023-09-19T13:06:49;100843.56;;;21.67;45.44
11987;BME280;6053;51.382;6.768;2023-09-19T13:09:20;100840.09;;;22.16;44.91
11987;BME280;6053;51.382;6.768;2023-09-19T13:11:51;100855.84;;;21.75;45.19
11987;BME280;6053;51.382;6.768;2023-09-19T13:14:26;100847.78;;;21.52;46.40
11987;BME280;6053;51.382;6.768;2023-09-19T13:17:00;100839.25;;;21.30;45.08
11987;BME280;6053;51.382;6.768;2023-09-19T13:19:46;100850.97;;;21.70;44.94
11987;BME280;6053;51.382;6.768;2023-09-19T13:22:36;100858.78;;;20.72;46.87
11987;BME280;6053;51.382;6.768;2023-09-19T13:25:07;100845.22;;;22.12;46.40
11987;BME280;6053;51.382;6.768;2023-09-19T13:27:42;100859.56;;;21.09;45.30
11987;BME280;6053;51.382;6.768;2023-09-19T13:30:13;100850.84;;;21.01;48.38
11987;BME280;6053;51.382;6.768;2023-09-19T13:32:42;100857.56;;;21.62;47.58
11987;BME280;6053;51.382;6.768;2023-09-19T13:35:14;100851.28;;;21.94;44.75
11987;BME280;6053;51.382;6.768;2023-09-19T13:37:43;100855.66;;;22.01;46.89
11987;BME280;6053;51.382;6.768;2023-09-19T13:40:16;100848.28;;;22.09;45.83
11987;BME280;6053;51.382;6.768;2023-09-19T13:42:44;100849.97;;;21.73;47.21
11987;BME280;6053;51.382;6.768;2023-09-19T13:45:14;100863.22;;;21.26;48.48
11987;BME280;6053;51.382;6.768;2023-09-19T13:47:44;100854.38;;;20.66;46.83
11987;BME280;6053;51.382;6.768;2023-09-19T13:50:13;100851.16;;;21.09;47.23